Time;durP1;ratioP1;P1;durP2;ratioP2;P2;SDS_P1;SDS_P2;PMS_P1;PMS_P2;Temp;Humidity;BMP_temperature;BMP_pressure;BME280_temperature;BME280_humidity;BME280_pressure;Samples;Min_cycle;Max_cycle;Signal;HPM_P1;HPM_P2
2023/08/07 00:01:07;;;;;;;2.35;0.88;;;;;;;12.50;61.25;92636.81;2038068;70;20154;-78
2023/08/07 00:03:32;;;;;;;0.80;0.70;;;;;;;12.80;61.79;92626.38;2041013;70;20225;-78
2023/08/07 00:05:58;;;;;;;3.00;0.80;;;;;;;12.74;61.82;92621.16;2038051;70;20628;-78
2023/08/07 00:08:24;;;;;;;1.38;0.70;;;;;;;12.84;62.95;92626.59;2041452;70;20159;-78
2023/08/07 00:10:50;;;;;;;5.75;0.85;;;;;;;12.73;64.23;92620.41;2041483;70;20147;-78
2023/08/07 00:13:16;;;;;;;5.05;0.68;;;;;;;12.79;64.25;92617.16;2041677;70;20147;-79
2023/08/07 00:15:42;;;;;;;3.67;0.88;;;;;;;12.45;64.67;92624.56;2041517;70;20141;-79
2023/08/07 00:18:08;;;;;;;4.43;0.90;;;;;;;12.65;64.18;92620.00;2041792;70;20139;-80
2023/08/07 00:20:34;;;;;;;4.45;0.82;;;;;;;12.75;63.75;92631.09;2038311;70;20143;-79
2023/08/07 00:22:59;;;;;;;4.32;0.73;;;;;;;12.72;63.91;92629.50;2041605;70;20155;-79
2023/08/07 00:25:25;;;;;;;0.93;0.70;;;;;;;12.74;62.73;92635.28;2041733;70;20159;-79
2023/08/07 00:27:51;;;;;;;2.92;0.80;;;;;;;12.67;63.97;92619.38;2041552;70;20159;-79
2023/08/07 00:30:16;;;;;;;2.17;0.80;;;;;;;12.77;63.44;92628.34;2038161;70;20144;-78
2023/08/07 00:32:42;;;;;;;3.83;0.88;;;;;;;12.64;63.20;92610.03;2038293;70;20155;-78
2023/08/07 00:35:08;;;;;;;2.20;0.50;;;;;;;12.38;58.62;92612.25;2041601;70;20174;-78
2023/08/07 00:37:34;;;;;;;1.17;0.60;;;;;;;12.31;59.31;92606.88;2041492;70;20163;-79
2023/08/07 00:40:01;;;;;;;2.03;0.60;;;;;;;12.63;59.64;92611.41;2041591;70;20190;-79
2023/08/07 00:42:28;;;;;;;2.85;0.90;;;;;;;12.61;61.02;92614.13;2038270;70;20143;-79
2023/08/07 00:44:53;;;;;;;0.80;0.80;;;;;;;12.63;61.90;92617.06;2041491;70;20494;-79
2023/08/07 00:47:19;;;;;;;4.00;0.98;;;;;;;12.70;63.29;92604.72;2041601;70;20162;-79
2023/08/07 00:49:46;;;;;;;1.65;0.80;;;;;;;12.70;63.60;92593.44;2041703;70;20151;-79
2023/08/07 00:52:12;;;;;;;2.72;0.60;;;;;;;12.74;63.66;92604.22;2038304;70;20632;-79
2023/08/07 00:54:38;;;;;;;0.80;0.65;;;;;;;12.68;63.87;92598.97;2038182;70;20144;-79
2023/08/07 00:57:11;;;;;;;2.28;0.60;;;;;;;12.52;64.13;92603.78;2038185;70;20628;-79
2023/08/07 00:59:38;;;;;;;2.42;0.70;;;;;;;12.59;64.12;92610.47;2038122;70;20147;-79
2023/08/07 01:02:04;;;;;;;0.82;0.70;;;;;;;12.59;63.14;92619.66;2040978;70;20156;-79
2023/08/07 01:04:31;;;;;;;4.20;0.85;;;;;;;12.73;62.28;92626.03;2041445;70;20162;-79
2023/08/07 01:06:56;;;;;;;3.03;0.70;;;;;;;12.64;62.56;92623.44;2041454;70;20139;-79
2023/08/07 01:09:22;;;;;;;2.20;0.70;;;;;;;12.72;62.15;92621.03;2041382;70;20151;-79
2023/08/07 01:12:24;;;;;;;1.63;0.80;;;;;;;12.78;63.29;92627.00;2038211;70;20166;-79
2023/08/07 01:14:58;;;;;;;1.08;0.70;;;;;;;12.79;61.45;92620.00;2039672;70;20139;-78
2023/08/07 01:17:25;;;;;;;1.33;0.70;;;;;;;12.77;60.13;92625.53;2038292;70;20143;-78
2023/08/07 01:19:55;;;;;;;3.88;0.63;;;;;;;12.72;62.84;92627.41;2038196;70;20171;-79
2023/08/07 01:22:21;;;;;;;1.88;1.10;;;;;;;12.37;62.60;92630.53;2041410;70;20163;-79
2023/08/07 01:25:00;;;;;;;2.03;0.73;;;;;;;12.37;62.75;92633.38;2038197;70;20148;-79
2023/08/07 01:28:11;;;;;;;0.85;0.70;;;;;;;12.20;63.20;92628.94;2038219;70;20151;-79
2023/08/07 01:30:40;;;;;;;1.17;0.80;;;;;;;12.36;63.57;92633.97;2041269;70;20140;-79
2023/08/07 01:33:32;;;;;;;2.80;0.90;;;;;;;12.33;65.00;92629.59;2035453;70;20230;-79
2023/08/07 01:36:02;;;;;;;2.80;0.88;;;;;;;12.42;62.16;92631.50;2041222;70;20260;-79
2023/08/07 01:38:29;;;;;;;3.75;0.90;;;;;;;12.35;63.08;92624.03;2041434;70;20142;-79
2023/08/07 01:40:56;;;;;;;0.93;0.60;;;;;;;12.46;60.59;92626.78;2041300;70;20151;-79
2023/08/07 01:43:22;;;;;;;0.65;0.60;;;;;;;12.10;59.49;92628.41;2038027;70;20139;-78
2023/08/07 01:45:47;;;;;;;0.90;0.70;;;;;;;12.38;59.81;92617.88;2041136;70;20162;-79
2023/08/07 01:48:15;;;;;;;0.82;0.65;;;;;;;12.29;59.41;92616.00;2041422;70;20658;-79
2023/08/07 01:50:41;;;;;;;0.73;0.60;;;;;;;12.18;59.63;92623.16;2041279;70;20179;-79
2023/08/07 01:53:07;;;;;;;0.55;0.55;;;;;;;12.15;59.47;92621.63;2037892;70;20159;-79
2023/08/07 01:55:33;;;;;;;1.30;0.60;;;;;;;12.20;59.38;92625.38;2041310;70;20147;-78
2023/08/07 01:57:59;;;;;;;1.23;0.50;;;;;;;12.22;59.28;92622.66;2037981;70;20226;-78
2023/08/07 02:00:25;;;;;;;1.30;0.70;;;;;;;12.10;60.97;92619.22;2041150;70;20151;-78
2023/08/07 02:02:51;;;;;;;1.38;0.60;;;;;;;12.21;61.53;92624.75;2041226;70;20183;-78
2023/08/07 02:05:17;;;;;;;1.90;0.70;;;;;;;12.21;60.78;92630.41;2038026;70;20348;-79
2023/08/07 02:07:44;;;;;;;1.25;0.65;;;;;;;12.49;60.77;92635.34;2041311;70;20159;-78
2023/08/07 02:10:10;;;;;;;1.00;0.70;;;;;;;12.52;60.99;92628.47;2038107;70;20155;-78
2023/08/07 02:12:36;;;;;;;0.82;0.52;;;;;;;12.61;60.12;92639.56;2041273;70;20166;-79
2023/08/07 02:15:03;;;;;;;1.08;0.70;;;;;;;12.53;60.48;92641.94;2037983;70;20628;-79
2023/08/07 02:17:32;;;;;;;0.82;0.60;;;;;;;12.40;60.03;92645.47;2038121;70;20136;-79
2023/08/07 02:19:58;;;;;;;1.25;0.65;;;;;;;12.57;61.04;92649.91;2038276;70;20148;-79
2023/08/07 02:22:24;;;;;;;0.80;0.60;;;;;;;12.49;60.05;92646.66;2038111;70;20161;-79
2023/08/07 02:24:50;;;;;;;1.13;0.60;;;;;;;12.65;59.58;92664.47;2041511;70;20140;-79
2023/08/07 02:27:15;;;;;;;0.65;0.43;;;;;;;12.66;59.16;92669.47;2041515;70;20210;-79
2023/08/07 02:29:41;;;;;;;1.38;0.60;;;;;;;12.59;58.86;92669.75;2041363;70;20171;-78
2023/08/07 02:32:07;;;;;;;0.60;0.60;;;;;;;12.50;59.22;92671.44;2041663;70;20222;-79
2023/08/07 02:34:33;;;;;;;1.88;0.50;;;;;;;12.66;61.15;92665.91;2041885;70;20585;-79
2023/08/07 02:36:59;;;;;;;3.70;0.50;;;;;;;12.69;62.45;92671.06;2042126;70;20151;-79
2023/08/07 02:39:25;;;;;;;0.80;0.68;;;;;;;12.68;62.70;92675.22;2041820;70;20178;-79
2023/08/07 02:41:51;;;;;;;0.70;0.60;;;;;;;12.48;60.37;92667.78;2038550;70;20175;-79
2023/08/07 02:44:18;;;;;;;3.45;0.50;;;;;;;12.58;62.43;92673.97;2041720;70;20218;-79
2023/08/07 02:46:43;;;;;;;2.20;0.60;;;;;;;12.64;62.98;92672.19;2038645;70;20139;-79
2023/08/07 02:49:09;;;;;;;0.88;0.60;;;;;;;12.63;63.78;92664.34;2041959;70;20577;-79
2023/08/07 02:51:35;;;;;;;0.88;0.50;;;;;;;12.61;63.73;92672.72;2041963;70;20533;-79
2023/08/07 02:54:00;;;;;;;2.10;0.50;;;;;;;12.62;64.47;92674.91;2038566;70;20171;-79
2023/08/07 02:56:26;;;;;;;1.23;0.47;;;;;;;12.57;65.50;92667.56;2038601;70;20155;-78
2023/08/07 02:58:52;;;;;;;6.90;0.70;;;;;;;12.62;64.72;92671.34;2041720;70;20151;-78
2023/08/07 03:01:20;;;;;;;0.65;0.50;;;;;;;12.51;64.13;92663.69;2041741;70;20146;-78
2023/08/07 03:03:46;;;;;;;4.13;0.63;;;;;;;12.30;63.11;92668.25;2035867;70;20147;-79
2023/08/07 03:06:12;;;;;;;0.75;0.60;;;;;;;12.43;62.85;92664.72;2038567;70;20151;-79
2023/08/07 03:08:37;;;;;;;0.93;0.60;;;;;;;12.49;62.34;92672.06;2038507;70;20159;-79
2023/08/07 03:11:03;;;;;;;2.67;0.50;;;;;;;12.53;64.22;92673.00;2035846;70;20518;-79
2023/08/07 03:13:28;;;;;;;1.95;0.40;;;;;;;12.46;63.26;92680.44;2038474;70;20186;-79
2023/08/07 03:16:05;;;;;;;1.67;0.50;;;;;;;12.28;60.29;92675.88;2041678;70;20155;-79
2023/08/07 03:18:31;;;;;;;0.40;0.40;;;;;;;12.00;59.50;92681.44;2038511;70;20147;-79
2023/08/07 03:20:58;;;;;;;2.20;0.60;;;;;;;12.12;60.54;92684.94;2035809;70;20222;-79
2023/08/07 03:23:25;;;;;;;2.42;0.45;;;;;;;12.38;60.30;92685.63;2041746;70;20174;-79
2023/08/07 03:26:02;;;;;;;0.80;0.47;;;;;;;12.34;59.88;92691.06;2038518;70;20216;-79
2023/08/07 03:28:28;;;;;;;0.88;0.60;;;;;;;12.23;60.45;92686.22;2041867;70;20140;-79
2023/08/07 03:30:53;;;;;;;1.48;0.55;;;;;;;12.39;61.10;92692.03;2038423;70;20147;-79
2023/08/07 03:33:20;;;;;;;3.83;0.60;;;;;;;12.41;62.16;92697.75;2035786;70;20147;-78
2023/08/07 03:35:46;;;;;;;0.50;0.50;;;;;;;12.38;63.04;92713.88;2041895;70;20151;-78
2023/08/07 03:38:11;;;;;;;0.70;0.50;;;;;;;12.41;63.07;92718.25;2041810;70;20163;-78
2023/08/07 03:40:37;;;;;;;1.55;0.40;;;;;;;12.24;61.54;92718.00;2038525;70;20347;-79
2023/08/07 03:43:04;;;;;;;1.27;0.55;;;;;;;12.13;61.58;92723.06;2038473;70;20178;-79
2023/08/07 03:45:30;;;;;;;2.35;0.47;;;;;;;12.32;62.04;92724.09;2038194;70;20493;-79
2023/08/07 03:47:55;;;;;;;0.77;0.47;;;;;;;12.00;60.00;92720.19;2041715;70;20220;-79
2023/08/07 03:50:21;;;;;;;0.55;0.38;;;;;;;12.27;59.38;92720.31;2038479;70;20159;-79
2023/08/07 03:52:48;;;;;;;0.75;0.60;;;;;;;12.19;59.35;92731.16;2041882;70;20158;-79
2023/08/07 03:55:14;;;;;;;0.73;0.50;;;;;;;12.24;59.69;92737.78;2038432;70;20151;-78
2023/08/07 03:57:40;;;;;;;3.53;0.32;;;;;;;12.13;58.96;92736.47;2041770;70;20151;-79
2023/08/07 04:00:07;;;;;;;1.75;0.40;;;;;;;12.20;59.41;92732.63;2038315;70;20192;-78
2023/08/07 04:02:39;;;;;;;0.40;0.38;;;;;;;12.31;60.04;92736.72;2041600;70;20186;-78
2023/08/07 04:05:07;;;;;;;1.02;0.40;;;;;;;12.27;60.69;92736.50;2041683;70;20258;-78
2023/08/07 04:07:32;;;;;;;1.83;0.40;;;;;;;12.26;61.88;92738.59;2041785;70;20150;-78
2023/08/07 04:09:58;;;;;;;0.55;0.43;;;;;;;12.27;62.09;92744.97;2041706;70;20273;-79
2023/08/07 04:12:24;;;;;;;4.68;0.40;;;;;;;12.11;63.67;92739.91;2041749;70;20147;-79
2023/08/07 04:14:49;;;;;;;1.05;0.50;;;;;;;12.10;61.80;92743.38;2038132;70;20602;-79
2023/08/07 04:17:17;;;;;;;1.63;0.65;;;;;;;12.15;62.78;92730.94;2041654;70;20163;-79
2023/08/07 04:19:43;;;;;;;2.25;0.40;;;;;;;12.16;63.97;92732.41;2038358;70;20171;-78
2023/08/07 04:22:09;;;;;;;2.30;0.50;;;;;;;12.22;64.77;92729.91;2041578;70;20152;-79
2023/08/07 04:24:35;;;;;;;1.33;0.40;;;;;;;12.22;64.95;92724.25;2041737;70;20207;-79
2023/08/07 04:27:01;;;;;;;2.15;0.60;;;;;;;12.22;64.17;92712.97;2041575;70;20625;-79
2023/08/07 04:29:26;;;;;;;2.05;0.50;;;;;;;12.23;63.72;92705.25;2041534;70;20154;-80
2023/08/07 04:31:53;;;;;;;0.85;0.45;;;;;;;12.15;63.79;92703.44;2041779;70;20147;-78
2023/08/07 04:34:19;;;;;;;2.50;0.60;;;;;;;12.22;63.92;92712.97;2041647;70;20155;-78
2023/08/07 04:36:44;;;;;;;10.77;0.98;;;;;;;12.18;64.46;92719.13;2041785;70;20147;-79
2023/08/07 04:39:10;;;;;;;1.23;0.40;;;;;;;12.11;66.15;92722.97;2041573;70;20146;-79
2023/08/07 04:41:35;;;;;;;0.82;0.57;;;;;;;11.93;65.63;92717.06;2041519;70;20137;-78
2023/08/07 04:44:01;;;;;;;2.13;0.68;;;;;;;11.14;68.16;92716.03;2041509;70;20167;-78
2023/08/07 04:46:26;;;;;;;1.00;0.80;;;;;;;11.71;66.52;92727.03;2041780;70;20502;-79
2023/08/07 04:48:52;;;;;;;0.70;0.70;;;;;;;11.59;65.47;92724.28;2041522;70;20147;-79
2023/08/07 04:51:18;;;;;;;0.70;0.70;;;;;;;11.69;64.57;92733.31;2041604;70;20513;-79
2023/08/07 04:53:43;;;;;;;1.25;0.55;;;;;;;11.71;62.56;92722.13;2041544;70;20158;-78
2023/08/07 04:56:09;;;;;;;2.10;0.50;;;;;;;11.76;60.60;92731.56;2041507;70;20162;-78
2023/08/07 04:58:34;;;;;;;2.30;0.70;;;;;;;11.88;61.54;92728.72;2041529;70;20147;-78
2023/08/07 05:01:00;;;;;;;0.60;0.60;;;;;;;12.02;61.13;92723.88;2038085;70;20242;-79
2023/08/07 05:03:30;;;;;;;1.25;0.60;;;;;;;11.67;63.59;92732.44;2041616;70;20586;-79
2023/08/07 05:06:02;;;;;;;0.95;0.73;;;;;;;11.46;64.06;92733.38;2041729;70;20147;-80
2023/08/07 05:08:27;;;;;;;1.00;0.80;;;;;;;11.87;62.49;92730.09;2041508;70;20512;-80
2023/08/07 05:10:53;;;;;;;1.08;0.70;;;;;;;12.11;62.47;92730.72;2041567;70;20131;-79
2023/08/07 05:13:19;;;;;;;1.23;0.77;;;;;;;12.24;62.41;92741.31;2041534;70;20159;-79
2023/08/07 05:15:47;;;;;;;0.77;0.57;;;;;;;12.33;61.93;92748.16;2041387;70;20147;-80
2023/08/07 05:18:13;;;;;;;1.83;0.60;;;;;;;12.25;63.38;92754.06;2041423;70;20147;-79
2023/08/07 05:20:38;;;;;;;0.50;0.50;;;;;;;12.16;63.09;92752.88;2039354;70;20187;-79
2023/08/07 05:23:04;;;;;;;1.00;0.60;;;;;;;12.35;62.09;92762.38;2037706;70;20160;-80
2023/08/07 05:25:29;;;;;;;1.92;0.70;;;;;;;12.23;61.36;92772.97;2038249;70;20132;-81
2023/08/07 05:27:55;;;;;;;0.70;0.60;;;;;;;12.24;61.83;92783.66;2038304;70;20144;-78
2023/08/07 05:30:20;;;;;;;1.23;0.60;;;;;;;12.11;61.54;92784.34;2038070;70;20152;-79
2023/08/07 05:32:46;;;;;;;1.00;0.80;;;;;;;12.13;62.60;92795.72;2038152;70;20135;-79
2023/08/07 05:35:12;;;;;;;0.88;0.70;;;;;;;12.28;62.06;92800.06;2038190;70;20167;-78
2023/08/07 05:37:37;;;;;;;0.77;0.68;;;;;;;12.29;62.40;92790.25;2038173;70;20144;-78
2023/08/07 05:40:05;;;;;;;1.05;0.65;;;;;;;12.40;61.49;92781.00;2038221;70;20163;-78
2023/08/07 05:42:34;;;;;;;3.50;0.70;;;;;;;11.74;63.03;92770.94;2038346;70;20156;-78
2023/08/07 05:45:00;;;;;;;2.08;0.80;;;;;;;12.01;63.74;92786.59;2038098;70;20625;-80
2023/08/07 05:47:26;;;;;;;1.27;0.50;;;;;;;12.31;62.25;92790.38;2038277;70;20144;-78
2023/08/07 05:49:51;;;;;;;2.55;0.70;;;;;;;12.26;62.50;92800.69;2038184;70;20605;-78
2023/08/07 05:52:17;;;;;;;0.88;0.70;;;;;;;12.19;63.13;92796.09;2038018;70;20510;-77
2023/08/07 05:54:43;;;;;;;0.90;0.60;;;;;;;12.28;62.20;92788.78;2037477;70;20242;-80
2023/08/07 05:57:09;;;;;;;0.50;0.50;;;;;;;12.12;62.98;92797.09;2038044;70;20594;-80
2023/08/07 05:59:35;;;;;;;0.70;0.60;;;;;;;11.93;63.95;92795.31;2037941;70;20234;-79
2023/08/07 06:02:02;;;;;;;2.05;0.95;;;;;;;11.98;64.31;92793.47;2039631;70;20151;-78
2023/08/07 06:04:28;;;;;;;1.75;1.20;;;;;;;11.87;65.42;92798.53;2039181;70;20148;-78
2023/08/07 06:06:53;;;;;;;1.83;1.60;;;;;;;12.01;65.47;92795.06;2037703;70;20180;-78
2023/08/07 06:09:20;;;;;;;1.95;1.73;;;;;;;11.82;65.81;92793.22;2038789;70;20516;-78
2023/08/07 06:11:47;;;;;;;1.40;0.82;;;;;;;12.04;65.55;92802.25;2041068;70;20222;-77
2023/08/07 06:14:12;;;;;;;1.02;0.70;;;;;;;12.25;65.91;92799.25;2041028;70;20206;-78
2023/08/07 06:16:38;;;;;;;2.47;0.70;;;;;;;12.43;64.73;92796.69;2041240;70;20590;-78
2023/08/07 06:19:04;;;;;;;0.80;0.68;;;;;;;12.46;65.27;92801.09;2041186;70;20139;-79
2023/08/07 06:21:29;;;;;;;1.30;0.60;;;;;;;12.33;66.13;92798.97;2041250;70;20143;-78
2023/08/07 06:23:55;;;;;;;0.80;0.80;;;;;;;12.44;65.43;92806.63;2041210;70;20206;-77
2023/08/07 06:26:20;;;;;;;1.08;0.90;;;;;;;12.50;65.47;92794.94;2041203;70;20557;-79
2023/08/07 06:28:46;;;;;;;1.33;0.73;;;;;;;12.49;65.42;92801.94;2041035;70;20154;-79
2023/08/07 06:31:12;;;;;;;0.98;0.70;;;;;;;12.68;64.37;92807.22;2041431;70;20545;-77
2023/08/07 06:33:38;;;;;;;1.48;1.00;;;;;;;12.53;65.21;92799.34;2041174;70;20613;-77
2023/08/07 06:36:04;;;;;;;1.08;0.80;;;;;;;12.68;64.90;92802.31;2041215;70;20198;-78
2023/08/07 06:38:30;;;;;;;1.17;0.95;;;;;;;12.60;65.37;92809.59;2041392;70;20151;-79
2023/08/07 06:40:56;;;;;;;2.30;1.00;;;;;;;12.65;64.34;92802.84;2041247;70;20604;-78
2023/08/07 06:43:22;;;;;;;1.52;0.90;;;;;;;12.69;63.85;92803.81;2041290;70;20174;-79
2023/08/07 06:45:50;;;;;;;1.00;0.90;;;;;;;12.50;64.93;92803.41;2041244;70;20138;-78
2023/08/07 06:48:16;;;;;;;4.60;1.25;;;;;;;12.39;65.09;92805.66;2041322;70;20545;-78
2023/08/07 06:50:42;;;;;;;1.80;1.00;;;;;;;12.46;65.40;92809.56;2041200;70;20166;-78
2023/08/07 06:53:07;;;;;;;5.93;2.50;;;;;;;12.42;65.44;92800.88;2041148;70;20143;-78
2023/08/07 06:55:33;;;;;;;2.63;1.98;;;;;;;12.23;65.79;92816.03;2041001;70;20546;-79
2023/08/07 06:57:59;;;;;;;2.47;2.00;;;;;;;12.68;64.22;92813.59;2041261;70;20235;-78
2023/08/07 07:00:25;;;;;;;2.88;1.42;;;;;;;12.31;64.96;92813.69;2041229;70;20147;-79
2023/08/07 07:02:50;;;;;;;0.70;0.70;;;;;;;12.53;62.49;92802.16;2041373;70;20246;-79
2023/08/07 07:05:16;;;;;;;1.15;0.55;;;;;;;12.54;62.22;92795.16;2041345;70;20610;-79
2023/08/07 07:07:41;;;;;;;0.73;0.70;;;;;;;12.73;61.32;92806.81;2041258;70;20633;-78
2023/08/07 07:10:07;;;;;;;0.80;0.70;;;;;;;12.85;60.72;92794.72;2041321;70;20231;-79
2023/08/07 07:12:33;;;;;;;0.73;0.50;;;;;;;13.18;59.84;92791.53;2040829;70;20566;-79
2023/08/07 07:14:59;;;;;;;2.17;0.90;;;;;;;13.30;59.82;92785.81;2041116;70;20136;-79
2023/08/07 07:17:24;;;;;;;0.82;0.50;;;;;;;13.08;60.32;92791.00;2041264;70;20573;-79
2023/08/07 07:19:50;;;;;;;0.63;0.50;;;;;;;13.47;59.75;92803.00;2038279;70;20178;-79
2023/08/07 07:22:15;;;;;;;0.50;0.50;;;;;;;13.52;59.79;92798.28;2041763;70;20150;-79
2023/08/07 07:24:41;;;;;;;2.53;0.60;;;;;;;13.52;60.19;92798.28;2041794;70;20174;-79
2023/08/07 07:27:07;;;;;;;3.15;1.00;;;;;;;13.76;60.05;92798.06;2041647;70;20139;-79
2023/08/07 07:29:32;;;;;;;0.75;0.57;;;;;;;13.70;58.75;92795.66;2041385;70;20150;-78
2023/08/07 07:31:58;;;;;;;1.42;0.63;;;;;;;13.71;59.83;92800.69;2041513;70;20166;-80
2023/08/07 07:34:23;;;;;;;1.90;0.60;;;;;;;13.72;60.12;92796.47;2041650;70;20207;-78
2023/08/07 07:36:49;;;;;;;2.17;1.00;;;;;;;13.55;58.55;92788.53;2041631;70;20143;-78
2023/08/07 07:39:15;;;;;;;1.13;0.80;;;;;;;13.79;58.84;92794.72;2041618;70;20143;-77
2023/08/07 07:41:40;;;;;;;1.08;0.98;;;;;;;13.99;59.29;92794.97;2041666;70;20251;-78
2023/08/07 07:44:06;;;;;;;1.20;0.63;;;;;;;14.30;58.58;92800.03;2041514;70;20140;-78
2023/08/07 07:46:32;;;;;;;1.73;0.60;;;;;;;14.06;58.38;92802.38;2041751;70;20177;-78
2023/08/07 07:48:59;;;;;;;1.25;0.88;;;;;;;13.88;58.41;92807.91;2040919;70;20178;-78
2023/08/07 07:51:24;;;;;;;1.38;0.50;;;;;;;14.51;56.93;92801.03;2041193;70;20234;-78
2023/08/07 07:53:50;;;;;;;0.60;0.57;;;;;;;14.47;56.70;92799.44;2041395;70;20155;-78
2023/08/07 07:56:16;;;;;;;2.15;0.55;;;;;;;15.16;56.23;92813.28;2041707;70;20158;-78
2023/08/07 07:58:41;;;;;;;1.10;0.70;;;;;;;15.31;56.18;92803.34;2041494;70;20178;-78
2023/08/07 08:01:08;;;;;;;2.75;0.70;;;;;;;15.89;55.23;92801.63;2041612;70;20135;-79
2023/08/07 08:03:33;;;;;;;0.98;0.60;;;;;;;16.22;55.48;92803.75;2040401;70;20159;-79
2023/08/07 08:05:59;;;;;;;1.80;0.60;;;;;;;16.10;51.20;92808.19;2040122;70;20151;-79
2023/08/07 08:08:26;;;;;;;2.33;0.50;;;;;;;16.07;51.62;92807.34;2040124;70;20146;-79
2023/08/07 08:10:52;;;;;;;1.38;0.70;;;;;;;16.15;51.36;92816.22;2036846;70;20261;-80
2023/08/07 08:13:18;;;;;;;1.58;0.55;;;;;;;16.19;51.09;92815.66;2040064;70;20333;-79
2023/08/07 08:15:44;;;;;;;0.80;0.60;;;;;;;16.61;50.19;92830.16;2039863;70;20151;-78
2023/08/07 08:18:10;;;;;;;0.90;0.55;;;;;;;16.84;48.83;92826.13;2040507;70;20536;-79
2023/08/07 08:20:37;;;;;;;0.50;0.40;;;;;;;16.58;49.09;92822.91;2041543;70;20155;-80
2023/08/07 08:23:03;;;;;;;2.03;0.50;;;;;;;16.80;48.33;92834.50;2041645;70;20157;-79
2023/08/07 08:25:29;;;;;;;1.10;0.60;;;;;;;16.28;50.49;92834.50;2041598;70;20226;-79
2023/08/07 08:27:54;;;;;;;0.73;0.50;;;;;;;16.86;49.40;92832.63;2041625;70;20128;-78
2023/08/07 08:30:20;;;;;;;1.77;0.70;;;;;;;16.52;48.74;92840.47;2041348;70;20223;-78
2023/08/07 08:32:46;;;;;;;0.50;0.50;;;;;;;16.39;48.99;92847.75;2041735;70;20605;-78
2023/08/07 08:35:12;;;;;;;0.55;0.32;;;;;;;16.50;49.01;92846.81;2041566;70;20202;-79
2023/08/07 08:37:37;;;;;;;1.10;0.55;;;;;;;16.50;49.71;92841.13;2041780;70;20140;-79
2023/08/07 08:40:03;;;;;;;1.40;1.30;;;;;;;17.06;49.09;92852.59;2041569;70;20239;-79
2023/08/07 08:42:29;;;;;;;1.63;0.65;;;;;;;17.47;48.19;92842.78;2041499;70;20148;-79
2023/08/07 08:44:56;;;;;;;1.23;0.55;;;;;;;16.52;47.47;92838.34;2041616;70;20167;-79
2023/08/07 08:47:23;;;;;;;1.23;0.65;;;;;;;16.91;47.40;92848.47;2041662;70;20179;-80
2023/08/07 08:49:59;;;;;;;0.73;0.68;;;;;;;16.33;47.71;92846.78;2041631;70;20223;-79
2023/08/07 08:52:25;;;;;;;1.27;0.88;;;;;;;16.29;48.39;92847.31;2041668;70;20573;-79
2023/08/07 08:54:51;;;;;;;1.20;0.90;;;;;;;16.60;48.58;92842.91;2041550;70;20514;-80
2023/08/07 08:57:17;;;;;;;3.08;2.72;;;;;;;17.14;48.39;92841.53;2041552;70;20139;-80
2023/08/07 08:59:44;;;;;;;1.52;1.00;;;;;;;16.24;49.02;92852.09;2041401;70;20159;-79
2023/08/07 09:02:10;;;;;;;0.80;0.80;;;;;;;16.49;47.52;92853.09;2041634;70;20573;-79
2023/08/07 09:04:36;;;;;;;0.80;0.80;;;;;;;16.96;48.33;92855.06;2041594;70;20143;-79
2023/08/07 09:07:02;;;;;;;0.70;0.60;;;;;;;16.84;47.76;92854.56;2041514;70;20265;-79
2023/08/07 09:09:28;;;;;;;3.47;1.00;;;;;;;16.58;47.98;92865.53;2041542;70;20147;-79
2023/08/07 09:11:57;;;;;;;2.00;1.42;;;;;;;17.93;48.37;92848.75;2041527;70;20246;-79
2023/08/07 09:14:30;;;;;;;2.05;1.77;;;;;;;18.25;45.46;92855.59;2041400;70;20159;-79
2023/08/07 09:16:59;;;;;;;1.27;0.70;;;;;;;18.00;45.14;92856.84;2041506;70;20147;-80
2023/08/07 09:19:25;;;;;;;3.08;0.65;;;;;;;18.15;44.89;92860.22;2041695;70;20143;-79
2023/08/07 09:21:51;;;;;;;1.33;0.73;;;;;;;18.51;45.30;92866.44;2041500;70;20143;-79
2023/08/07 09:24:18;;;;;;;0.93;0.68;;;;;;;18.08;44.82;92864.22;2041516;70;20153;-79
2023/08/07 09:26:44;;;;;;;2.22;0.77;;;;;;;18.29;45.62;92860.72;2041723;70;20149;-79
2023/08/07 09:29:09;;;;;;;0.93;0.70;;;;;;;18.64;44.44;92859.00;2041389;70;20617;-80
2023/08/07 09:31:37;;;;;;;0.60;0.60;;;;;;;19.03;43.84;92864.63;2041396;70;20155;-80
2023/08/07 09:34:04;;;;;;;0.57;0.50;;;;;;;18.81;41.98;92849.63;2041452;70;20242;-79
2023/08/07 09:36:34;;;;;;;0.88;0.60;;;;;;;18.82;43.26;92856.06;2041499;70;20506;-80
2023/08/07 09:39:03;;;;;;;0.80;0.75;;;;;;;18.86;43.59;92851.22;2041473;70;20147;-80
2023/08/07 09:41:30;;;;;;;0.60;0.60;;;;;;;20.55;42.38;92859.09;2041445;70;20144;-80
2023/08/07 09:43:57;;;;;;;0.77;0.47;;;;;;;19.62;40.46;92848.63;2041370;70;20131;-80
2023/08/07 09:46:24;;;;;;;1.00;0.50;;;;;;;19.38;42.26;92851.44;2038120;70;20174;-80
2023/08/07 09:48:50;;;;;;;0.63;0.50;;;;;;;20.17;41.01;92850.19;2041303;70;20238;-80
2023/08/07 09:51:16;;;;;;;1.88;0.55;;;;;;;19.68;41.60;92856.63;2041377;70;20491;-80
2023/08/07 09:53:41;;;;;;;0.95;0.70;;;;;;;19.95;41.00;92853.13;2041381;70;20135;-80
2023/08/07 09:56:07;;;;;;;1.65;0.70;;;;;;;20.59;39.29;92849.16;2041407;70;20127;-80
2023/08/07 09:58:33;;;;;;;0.68;0.60;;;;;;;20.16;40.96;92853.69;2038225;70;20234;-79
2023/08/07 10:01:02;;;;;;;0.75;0.75;;;;;;;19.15;41.33;92846.41;2038124;70;20229;-79
2023/08/07 10:03:28;;;;;;;0.65;0.43;;;;;;;18.21;41.98;92846.91;2041346;70;20581;-79
2023/08/07 10:05:54;;;;;;;0.80;0.52;;;;;;;18.97;43.23;92843.75;2041356;70;20566;-79
2023/08/07 10:08:21;;;;;;;2.05;0.45;;;;;;;18.47;42.23;92844.22;2041267;70;20199;-79
2023/08/07 10:10:47;;;;;;;0.40;0.40;;;;;;;19.33;42.29;92832.72;2041312;70;20243;-80
2023/08/07 10:13:14;;;;;;;0.85;0.40;;;;;;;19.21;41.55;92847.34;2041335;70;20175;-79
2023/08/07 10:15:42;;;;;;;0.82;0.52;;;;;;;19.91;41.15;92849.44;2041121;70;20254;-79
2023/08/07 10:18:08;;;;;;;0.50;0.50;;;;;;;20.95;39.54;92849.34;2041333;70;20596;-79
2023/08/07 10:20:34;;;;;;;0.40;0.40;;;;;;;22.42;37.76;92841.13;2041323;70;20151;-79
2023/08/07 10:23:07;;;;;;;0.80;0.40;;;;;;;21.98;37.47;92819.47;2038153;70;20149;-80
2023/08/07 10:25:35;;;;;;;0.40;0.30;;;;;;;20.89;36.44;92841.34;2041491;70;20191;-80
2023/08/07 10:28:04;;;;;;;0.43;0.40;;;;;;;19.81;39.80;92847.03;2041308;70;20516;-79
2023/08/07 10:30:31;;;;;;;0.35;0.35;;;;;;;20.22;40.41;92853.88;2041267;70;20146;-80
2023/08/07 10:32:59;;;;;;;0.50;0.50;;;;;;;19.50;40.43;92860.38;2041190;70;20143;-80
2023/08/07 10:35:25;;;;;;;0.55;0.47;;;;;;;18.85;41.35;92860.47;2041338;70;20214;-80
2023/08/07 10:37:53;;;;;;;0.93;0.60;;;;;;;19.62;41.31;92879.31;2038151;70;20162;-78
2023/08/07 10:40:21;;;;;;;1.85;0.50;;;;;;;18.64;41.60;92876.84;2040260;70;20681;-79
2023/08/07 10:43:11;;;;;;;0.47;0.40;;;;;;;18.42;41.91;92888.25;2040830;70;20139;-79
2023/08/07 10:45:36;;;;;;;0.90;0.52;;;;;;;17.68;44.49;92875.56;2041174;70;20262;-78
2023/08/07 10:48:12;;;;;;;0.60;0.50;;;;;;;18.74;42.76;92885.06;2037085;70;20674;-78
2023/08/07 10:51:00;;;;;;;0.65;0.60;;;;;;;20.93;39.78;92889.34;2037295;70;20322;-77
2023/08/07 10:53:29;;;;;;;0.40;0.40;;;;;;;24.75;32.97;92891.38;2034322;70;20171;-78
2023/08/07 10:55:58;;;;;;;0.60;0.40;;;;;;;22.93;32.63;92899.50;2037643;70;20223;-79
2023/08/07 10:58:32;;;;;;;3.22;0.60;;;;;;;25.82;29.68;92896.69;2034498;70;20310;-79
2023/08/07 11:01:20;;;;;;;0.50;0.40;;;;;;;26.78;30.03;92906.59;2037702;70;20180;-79
2023/08/07 11:03:51;;;;;;;0.40;0.30;;;;;;;27.46;28.21;92898.09;2038296;70;20226;-80
2023/08/07 11:06:23;;;;;;;0.73;0.40;;;;;;;24.66;32.98;92896.31;2038071;70;20144;-80
2023/08/07 11:08:50;;;;;;;0.30;0.30;;;;;;;26.87;27.83;92898.69;2038129;70;20143;-79
2023/08/07 11:11:16;;;;;;;0.40;0.40;;;;;;;31.01;25.71;92881.53;2038036;70;20618;-80
2023/08/07 11:13:43;;;;;;;0.30;0.30;;;;;;;31.56;24.38;92889.50;2038343;70;20158;-79
2023/08/07 11:16:09;;;;;;;0.60;0.30;;;;;;;31.93;22.29;92889.66;2038103;70;20143;-79
2023/08/07 11:18:41;;;;;;;0.40;0.40;;;;;;;26.78;26.83;92877.72;2038196;70;20151;-79
2023/08/07 11:21:08;;;;;;;2.00;0.40;;;;;;;30.67;25.20;92888.50;2037978;70;20179;-80
2023/08/07 11:23:35;;;;;;;0.43;0.30;;;;;;;34.20;20.76;92873.31;2038342;70;20167;-79
2023/08/07 11:26:02;;;;;;;0.70;0.43;;;;;;;30.04;21.79;92875.31;2037864;70;20530;-79
2023/08/07 11:28:34;;;;;;;0.30;0.30;;;;;;;31.64;23.83;92875.56;2038198;70;20139;-79
2023/08/07 11:31:01;;;;;;;0.37;0.37;;;;;;;37.05;21.33;92888.00;2037685;70;20533;-78
2023/08/07 11:33:28;;;;;;;1.40;0.40;;;;;;;36.78;19.01;92891.16;2038069;70;20190;-79